Terminal Aerodrome Forecast
Issued by NWS

Home | Current Version | Previous Version | Text Only | Print | Product List | Glossary On
Versions: 1 2 3 4 5 6 7 8 9 10 11 12 13 14 15 16 17 18 19 20 21 22 23 24 25 26
000
FTUS43 KTOP 260700 AAA
TAFFOE
TAF AMD
KFOE 260710Z 2607/2706 09005KT P6SM SKC
     FM260830 11005KT 4SM BR SCT006 BKN011
     FM260900 13006KT 1SM BR BKN005 WS010/21030KT
     FM261400 18019G28KT P6SM SKC
     FM270000 17009KT P6SM SKC=

USA.gov is the U.S. government's official web portal to all federal, state and local government web resources and services.